Terminal Aerodrome Forecast
Issued by NWS

Home | Current Version | Previous Version | Text Only | Print | Product List | Glossary On
Versions: 1 2 3 4 5 6 7 8 9 10 11 12 13 14 15 16 17 18 19 20 21 22 23 24 25 26 27
000
FTPA31 PHFO 221100
TAFLIH
TAF
PHLI 221120Z 2212/2312 05007KT P6SM VCSH SCT022 BKN045
     FM222000 08010KT P6SM FEW025 SCT045
     FM230500 05005KT P6SM FEW025 SCT045
     FM230800 30004KT P6SM FEW025 SCT045=

USA.gov is the U.S. government's official web portal to all federal, state and local government web resources and services.